Time;durP1;ratioP1;P1;durP2;ratioP2;P2;SDS_P1;SDS_P2;PMS_P1;PMS_P2;Temp;Humidity;BMP_temperature;BMP_pressure;BME280_temperature;BME280_humidity;BME280_pressure;Samples;Min_cycle;Max_cycle;Signal;HPM_P1;HPM_P2
2023/11/07 00:00:23;;;;;;;20.17;9.63;;;9.60;99.90;;;;;;4860847;29;20210;-64
2023/11/07 00:02:53;;;;;;;17.92;9.60;;;9.60;99.90;;;;;;4861237;29;20190;-65
2023/11/07 00:05:22;;;;;;;20.60;9.10;;;9.70;99.90;;;;;;4860898;29;20209;-66
2023/11/07 00:07:48;;;;;;;16.90;9.20;;;9.70;99.90;;;;;;4860798;29;20370;-66
2023/11/07 00:10:14;;;;;;;18.85;8.90;;;9.70;99.90;;;;;;4860986;29;20556;-64
2023/11/07 00:12:41;;;;;;;16.35;8.32;;;9.70;99.90;;;;;;4860888;29;20209;-64
2023/11/07 00:15:08;;;;;;;18.70;7.63;;;9.70;99.90;;;;;;4861022;29;20218;-66
2023/11/07 00:17:34;;;;;;;21.67;8.00;;;9.70;99.90;;;;;;4859598;29;20186;-66
2023/11/07 00:20:00;;;;;;;17.65;6.80;;;9.70;99.90;;;;;;4860290;29;20614;-64
2023/11/07 00:22:26;;;;;;;18.08;7.22;;;9.70;99.90;;;;;;4860802;29;20289;-68
2023/11/07 00:24:53;;;;;;;19.40;7.65;;;9.60;99.90;;;;;;4874497;29;20218;-65
2023/11/07 00:27:19;;;;;;;17.00;7.68;;;9.60;99.90;;;;;;4860415;29;20182;-67
2023/11/07 00:29:49;;;;;;;21.17;7.97;;;9.50;99.90;;;;;;4859391;29;20201;-65
2023/11/07 00:32:15;;;;;;;19.30;8.25;;;9.50;99.90;;;;;;4860485;29;20548;-66
2023/11/07 00:34:41;;;;;;;18.65;7.70;;;9.40;99.90;;;;;;4860952;29;20758;-66
2023/11/07 00:37:08;;;;;;;21.75;8.02;;;9.40;99.90;;;;;;4861015;29;20227;-66
2023/11/07 00:39:35;;;;;;;16.40;7.53;;;9.40;99.90;;;;;;4860437;29;20217;-67
2023/11/07 00:42:00;;;;;;;21.05;7.65;;;9.30;99.90;;;;;;4860043;29;20273;-66
2023/11/07 00:44:26;;;;;;;17.77;7.55;;;9.20;99.90;;;;;;4843860;29;20305;-66
2023/11/07 00:46:52;;;;;;;17.40;8.25;;;9.20;99.90;;;;;;4860309;29;20627;-66
2023/11/07 00:49:18;;;;;;;21.75;7.82;;;9.20;99.90;;;;;;4859090;29;20190;-66
2023/11/07 00:51:44;;;;;;;19.45;6.95;;;9.20;99.90;;;;;;4860747;29;20190;-66
2023/11/07 00:54:12;;;;;;;22.40;7.00;;;9.10;99.90;;;;;;4860330;29;20228;-65
2023/11/07 00:56:38;;;;;;;18.25;7.20;;;9.10;99.90;;;;;;4858952;29;20273;-66
2023/11/07 00:59:04;;;;;;;18.38;7.10;;;9.00;99.90;;;;;;4858900;29;20225;-64
2023/11/07 01:01:31;;;;;;;15.73;7.63;;;9.10;99.90;;;;;;4859683;29;20638;-64
2023/11/07 01:03:58;;;;;;;18.58;7.75;;;9.00;99.90;;;;;;4859092;29;20677;-64
2023/11/07 01:06:24;;;;;;;18.23;7.60;;;9.00;99.90;;;;;;4858707;29;20649;-65
2023/11/07 01:08:50;;;;;;;14.80;7.50;;;8.90;99.90;;;;;;4858822;29;20194;-64
2023/11/07 01:11:17;;;;;;;20.60;8.88;;;8.90;99.90;;;;;;4860052;29;20186;-66
2023/11/07 01:13:43;;;;;;;21.25;8.30;;;8.90;99.90;;;;;;4858747;29;20181;-66
2023/11/07 01:16:12;;;;;;;23.83;9.07;;;8.90;99.90;;;;;;4860046;29;20182;-64
2023/11/07 01:18:39;;;;;;;21.52;8.95;;;8.80;99.90;;;;;;4864277;29;20245;-66
2023/11/07 01:21:05;;;;;;;24.83;9.70;;;8.80;99.90;;;;;;4863724;29;20189;-64
2023/11/07 01:23:31;;;;;;;21.02;9.50;;;8.80;99.90;;;;;;4862782;29;20698;-65
2023/11/07 01:25:57;;;;;;;22.38;9.25;;;8.80;99.90;;;;;;4863562;29;20189;-66
2023/11/07 01:28:23;;;;;;;24.95;10.50;;;8.80;99.90;;;;;;4862574;29;20548;-65
2023/11/07 01:30:49;;;;;;;27.08;11.88;;;8.70;99.90;;;;;;4863424;29;20189;-65
2023/11/07 01:33:16;;;;;;;25.10;11.75;;;8.70;99.90;;;;;;4864112;29;20364;-66
2023/11/07 01:35:45;;;;;;;31.80;13.68;;;8.70;99.90;;;;;;4863852;29;20650;-66
2023/11/07 01:38:11;;;;;;;25.90;14.98;;;8.70;99.90;;;;;;4862461;29;20234;-64
2023/11/07 01:40:37;;;;;;;37.28;15.40;;;8.70;99.90;;;;;;4863207;29;20186;-66
2023/11/07 01:43:14;;;;;;;32.58;16.52;;;8.70;99.90;;;;;;4863499;29;20190;-66
2023/11/07 01:45:40;;;;;;;42.53;17.80;;;8.70;99.90;;;;;;4877709;29;20265;-66
2023/11/07 01:48:10;;;;;;;42.45;18.08;;;8.80;99.90;;;;;;4861947;29;20186;-66
2023/11/07 01:50:37;;;;;;;37.70;20.52;;;8.80;99.90;;;;;;4877796;29;20616;-66
2023/11/07 01:53:07;;;;;;;39.75;20.08;;;8.80;99.90;;;;;;4863031;29;20224;-65
2023/11/07 01:55:35;;;;;;;39.05;20.33;;;8.90;99.90;;;;;;4863283;29;20173;-64
2023/11/07 01:58:02;;;;;;;35.58;21.27;;;8.90;99.90;;;;;;4862218;29;20226;-64
2023/11/07 02:00:29;;;;;;;39.17;21.17;;;8.90;99.90;;;;;;4863204;29;20265;-64
2023/11/07 02:02:57;;;;;;;41.35;23.42;;;9.00;99.90;;;;;;4861724;29;20720;-64
2023/11/07 02:05:24;;;;;;;41.63;22.67;;;9.00;99.90;;;;;;4862923;29;20239;-64
2023/11/07 02:07:50;;;;;;;42.35;22.63;;;9.00;99.90;;;;;;4863257;29;20708;-65
2023/11/07 02:10:16;;;;;;;41.13;23.63;;;9.00;99.90;;;;;;4863266;29;20198;-66
2023/11/07 02:12:42;;;;;;;38.00;23.42;;;9.10;99.90;;;;;;4861744;29;20683;-64
2023/11/07 02:15:23;;;;;;;42.15;24.20;;;9.10;99.90;;;;;;4862181;29;20625;-64
2023/11/07 02:17:49;;;;;;;49.40;24.75;;;9.20;99.90;;;;;;4877333;29;20171;-66
2023/11/07 02:20:16;;;;;;;35.05;24.17;;;9.20;99.90;;;;;;4877147;29;20217;-65
2023/11/07 02:22:48;;;;;;;47.78;25.52;;;9.30;99.90;;;;;;4861697;29;20197;-65
2023/11/07 02:25:16;;;;;;;41.88;25.15;;;9.30;99.90;;;;;;4861796;29;20581;-67
2023/11/07 02:27:43;;;;;;;51.38;26.17;;;9.30;99.90;;;;;;4861180;29;20197;-65
2023/11/07 02:30:12;;;;;;;43.55;26.42;;;9.40;99.90;;;;;;4876284;29;20277;-65
2023/11/07 02:32:42;;;;;;;48.33;25.50;;;9.40;99.90;;;;;;4876624;29;20281;-65
2023/11/07 02:35:11;;;;;;;45.17;24.95;;;9.50;99.90;;;;;;4862166;29;20182;-65
2023/11/07 02:37:40;;;;;;;42.55;25.30;;;9.60;99.90;;;;;;4861300;29;20189;-66
2023/11/07 02:40:10;;;;;;;41.58;24.45;;;9.60;99.90;;;;;;4876790;29;20185;-65
2023/11/07 02:42:37;;;;;;;38.42;23.98;;;9.70;99.90;;;;;;4861337;29;20616;-65
2023/11/07 02:45:04;;;;;;;44.83;24.08;;;9.70;99.90;;;;;;4862288;29;20354;-65
2023/11/07 02:47:30;;;;;;;43.22;23.45;;;9.70;99.90;;;;;;4862343;29;20710;-65
2023/11/07 02:49:55;;;;;;;37.13;22.38;;;9.70;99.90;;;;;;4862038;29;20198;-65
2023/11/07 02:52:22;;;;;;;39.40;21.67;;;9.80;99.90;;;;;;4862296;29;20271;-67
2023/11/07 02:54:48;;;;;;;34.20;20.50;;;9.80;99.90;;;;;;4861929;29;20554;-65
2023/11/07 02:57:15;;;;;;;33.67;19.48;;;9.80;99.90;;;;;;4876510;29;20190;-65
2023/11/07 02:59:44;;;;;;;34.83;19.13;;;9.80;99.90;;;;;;4860953;29;20552;-66
2023/11/07 03:02:10;;;;;;;31.08;18.85;;;9.80;99.90;;;;;;4862215;29;20611;-66
2023/11/07 03:04:36;;;;;;;34.95;17.80;;;9.80;99.90;;;;;;4861815;29;20229;-65
2023/11/07 03:07:02;;;;;;;36.45;17.55;;;9.80;99.90;;;;;;4876464;29;20233;-66
2023/11/07 03:09:28;;;;;;;30.40;16.50;;;9.80;99.90;;;;;;4862222;29;20186;-65
2023/11/07 03:11:54;;;;;;;29.25;16.05;;;9.80;99.90;;;;;;4860949;29;20293;-64
2023/11/07 03:14:19;;;;;;;37.85;17.10;;;9.80;99.90;;;;;;4876181;29;20200;-64
2023/11/07 03:16:45;;;;;;;29.83;16.67;;;9.80;99.90;;;;;;4862130;29;20194;-65
2023/11/07 03:19:11;;;;;;;28.90;15.70;;;9.70;99.90;;;;;;4861841;29;20186;-65
2023/11/07 03:21:37;;;;;;;26.48;15.02;;;9.70;99.90;;;;;;4861430;29;20197;-65
2023/11/07 03:24:03;;;;;;;28.60;15.23;;;9.70;99.90;;;;;;4861561;29;20213;-66
2023/11/07 03:26:29;;;;;;;35.05;15.77;;;9.60;99.90;;;;;;4861318;29;20234;-63
2023/11/07 03:28:56;;;;;;;25.23;15.23;;;9.60;99.90;;;;;;4860316;29;20654;-64
2023/11/07 03:31:21;;;;;;;32.30;15.93;;;9.50;99.90;;;;;;4875750;29;20261;-64
2023/11/07 03:33:47;;;;;;;29.40;15.57;;;9.50;99.90;;;;;;4860688;29;20647;-65
2023/11/07 03:36:15;;;;;;;27.48;14.30;;;9.50;99.90;;;;;;4860356;29;20218;-64
2023/11/07 03:38:43;;;;;;;28.23;14.75;;;9.40;99.90;;;;;;4861356;29;20185;-64
2023/11/07 03:41:10;;;;;;;26.27;14.35;;;9.40;99.90;;;;;;4860708;29;20204;-65
2023/11/07 03:43:36;;;;;;;27.83;15.43;;;9.40;99.90;;;;;;4859773;29;20245;-66
2023/11/07 03:46:02;;;;;;;33.78;14.85;;;9.40;99.90;;;;;;4875452;29;20254;-63
2023/11/07 03:48:29;;;;;;;28.35;14.93;;;9.40;99.90;;;;;;4861275;29;20254;-64
2023/11/07 03:50:55;;;;;;;28.08;14.23;;;9.40;99.90;;;;;;4860927;29;20212;-65
2023/11/07 03:53:21;;;;;;;27.98;14.68;;;9.40;99.90;;;;;;4861229;29;20623;-65
2023/11/07 03:55:48;;;;;;;29.15;14.27;;;9.40;99.90;;;;;;4861700;29;20185;-65
2023/11/07 03:58:14;;;;;;;25.42;14.70;;;9.40;99.90;;;;;;4861354;29;20182;-66
2023/11/07 04:00:40;;;;;;;31.50;15.30;;;9.40;99.90;;;;;;4860891;29;20190;-66
2023/11/07 04:03:07;;;;;;;30.70;14.50;;;9.40;99.90;;;;;;4861227;29;20230;-64
2023/11/07 04:05:33;;;;;;;28.50;14.00;;;9.40;99.90;;;;;;4860886;29;20233;-65
2023/11/07 04:07:59;;;;;;;27.40;13.95;;;9.40;99.90;;;;;;4861195;29;20226;-66
2023/11/07 04:10:25;;;;;;;28.92;13.30;;;9.30;99.90;;;;;;4860660;29;20220;-66
2023/11/07 04:12:51;;;;;;;29.73;14.25;;;9.30;99.90;;;;;;4860799;29;20198;-64
2023/11/07 04:15:17;;;;;;;28.00;13.52;;;9.30;99.90;;;;;;4861038;29;20278;-66
2023/11/07 04:17:46;;;;;;;24.42;13.35;;;9.30;99.90;;;;;;4860610;29;20216;-64
2023/11/07 04:20:13;;;;;;;31.27;13.95;;;9.20;99.90;;;;;;4860627;29;20653;-67
2023/11/07 04:22:40;;;;;;;23.83;13.88;;;9.20;99.90;;;;;;4860703;29;20210;-66
2023/11/07 04:25:07;;;;;;;27.15;13.27;;;9.20;99.90;;;;;;4860818;29;20214;-65
2023/11/07 04:27:36;;;;;;;27.00;13.10;;;9.20;99.90;;;;;;4860683;29;20242;-65
2023/11/07 04:30:06;;;;;;;27.00;13.57;;;9.20;99.90;;;;;;4861058;29;20205;-65
2023/11/07 04:32:34;;;;;;;27.42;13.70;;;9.10;99.90;;;;;;4860671;29;20235;-64
2023/11/07 04:35:01;;;;;;;27.65;13.85;;;9.10;99.90;;;;;;4860487;29;20193;-66
2023/11/07 04:37:27;;;;;;;28.27;13.20;;;9.10;99.90;;;;;;4860489;29;20250;-66
2023/11/07 04:39:53;;;;;;;29.85;13.43;;;9.20;99.90;;;;;;4860448;29;20185;-64
2023/11/07 04:42:19;;;;;;;24.85;13.27;;;9.20;99.90;;;;;;4860762;29;20269;-65
2023/11/07 04:44:45;;;;;;;27.35;14.95;;;9.20;99.90;;;;;;4860071;29;20218;-66
2023/11/07 04:47:12;;;;;;;32.22;13.65;;;9.30;99.90;;;;;;4860361;29;20188;-66
2023/11/07 04:49:38;;;;;;;29.45;13.75;;;9.30;99.90;;;;;;4860038;29;20556;-65
2023/11/07 04:52:05;;;;;;;23.95;13.95;;;9.30;99.90;;;;;;4874128;29;20238;-66
2023/11/07 04:54:31;;;;;;;26.10;13.65;;;9.40;99.90;;;;;;4859569;29;20190;-66
2023/11/07 04:56:57;;;;;;;26.23;13.57;;;9.40;99.90;;;;;;4860225;29;20633;-65
2023/11/07 04:59:24;;;;;;;26.02;13.27;;;9.30;99.90;;;;;;4859984;29;20197;-66
2023/11/07 05:01:50;;;;;;;22.70;13.13;;;9.30;99.90;;;;;;4859964;29;20194;-66
2023/11/07 05:04:17;;;;;;;28.65;13.70;;;9.30;99.90;;;;;;4859746;29;20699;-66
2023/11/07 05:06:43;;;;;;;27.25;13.07;;;9.30;99.90;;;;;;4859632;29;20241;-65
2023/11/07 05:09:12;;;;;;;26.30;13.63;;;9.30;99.90;;;;;;4860094;29;20185;-65
2023/11/07 05:11:39;;;;;;;29.77;14.93;;;9.20;99.90;;;;;;4859749;29;20182;-66
2023/11/07 05:14:08;;;;;;;26.15;13.80;;;9.20;99.90;;;;;;4860115;29;20769;-64
2023/11/07 05:16:37;;;;;;;27.63;13.20;;;9.20;99.90;;;;;;4860091;29;20245;-65
2023/11/07 05:19:04;;;;;;;26.92;13.77;;;9.10;99.90;;;;;;4859910;29;20181;-65
2023/11/07 05:21:31;;;;;;;31.52;13.25;;;9.10;99.90;;;;;;4859830;29;20178;-65
2023/11/07 05:23:57;;;;;;;23.58;13.02;;;9.10;99.90;;;;;;4860045;29;20217;-65
2023/11/07 05:26:23;;;;;;;25.02;13.25;;;9.10;99.90;;;;;;4859911;29;20189;-64
2023/11/07 05:28:52;;;;;;;25.02;13.00;;;9.10;99.90;;;;;;4859871;29;20318;-65
2023/11/07 05:31:18;;;;;;;27.05;13.30;;;9.10;99.90;;;;;;4858488;29;20643;-66
2023/11/07 05:33:45;;;;;;;25.80;12.63;;;9.10;99.90;;;;;;4858746;29;20190;-66
2023/11/07 05:36:11;;;;;;;29.52;13.38;;;9.10;99.90;;;;;;4859755;29;20379;-65
2023/11/07 05:38:38;;;;;;;23.67;12.50;;;9.00;99.90;;;;;;4859431;29;20186;-65
2023/11/07 05:41:04;;;;;;;38.20;14.27;;;9.00;99.90;;;;;;4859645;29;20796;-65
2023/11/07 05:43:30;;;;;;;22.17;12.15;;;9.00;99.90;;;;;;4858666;29;20190;-67
2023/11/07 05:45:56;;;;;;;30.27;12.77;;;8.90;99.90;;;;;;4873777;29;20655;-66
2023/11/07 05:48:24;;;;;;;26.15;12.20;;;8.90;99.90;;;;;;4859826;29;20197;-66
2023/11/07 05:50:50;;;;;;;31.42;12.05;;;8.90;99.90;;;;;;4860049;29;20190;-68
2023/11/07 05:53:18;;;;;;;28.45;11.93;;;8.90;99.90;;;;;;4859880;29;20190;-65
2023/11/07 05:55:45;;;;;;;25.88;11.75;;;8.90;99.90;;;;;;4859460;29;20186;-64
2023/11/07 05:58:11;;;;;;;33.08;11.80;;;8.90;99.90;;;;;;4859374;29;20182;-64
2023/11/07 06:00:38;;;;;;;29.08;12.32;;;8.90;99.90;;;;;;4859410;29;20186;-66
2023/11/07 06:03:04;;;;;;;32.33;11.40;;;8.90;99.90;;;;;;4859665;29;20631;-65
2023/11/07 06:05:31;;;;;;;34.85;12.20;;;8.90;99.90;;;;;;4862181;29;20224;-66
2023/11/07 06:07:57;;;;;;;19.13;11.00;;;8.90;99.90;;;;;;4862905;29;20240;-66
2023/11/07 06:10:24;;;;;;;27.45;11.90;;;8.80;99.90;;;;;;4862910;29;20194;-66
2023/11/07 06:12:51;;;;;;;21.30;11.40;;;8.90;99.90;;;;;;4862768;29;20270;-66
2023/11/07 06:15:17;;;;;;;23.77;11.77;;;8.90;99.90;;;;;;4862885;29;20533;-66
2023/11/07 06:17:43;;;;;;;22.10;11.07;;;8.90;99.90;;;;;;4862710;29;20660;-65
2023/11/07 06:20:09;;;;;;;27.20;11.77;;;8.90;99.90;;;;;;4862691;29;20562;-65
2023/11/07 06:22:36;;;;;;;24.73;12.30;;;8.90;99.90;;;;;;4862429;29;20720;-67
2023/11/07 06:25:04;;;;;;;23.00;11.40;;;9.00;99.90;;;;;;4861326;29;20597;-67
2023/11/07 06:27:31;;;;;;;25.58;12.48;;;9.00;99.90;;;;;;4861305;29;20647;-66
2023/11/07 06:29:58;;;;;;;24.83;12.30;;;8.90;99.90;;;;;;4862748;29;20282;-67
2023/11/07 06:32:24;;;;;;;25.33;12.00;;;9.00;99.90;;;;;;4861458;29;20189;-66
2023/11/07 06:34:51;;;;;;;25.27;11.48;;;9.00;99.90;;;;;;4876555;29;20238;-65
2023/11/07 06:37:17;;;;;;;26.45;11.70;;;9.00;99.90;;;;;;4862586;29;20190;-66
2023/11/07 06:39:43;;;;;;;22.08;12.68;;;9.00;99.90;;;;;;4862430;29;20264;-65
2023/11/07 06:42:09;;;;;;;24.90;11.45;;;9.00;99.90;;;;;;4862597;29;20191;-66
2023/11/07 06:44:35;;;;;;;33.03;12.27;;;9.00;99.90;;;;;;4862497;29;20232;-65
2023/11/07 06:47:03;;;;;;;25.75;11.65;;;9.00;99.90;;;;;;4860923;29;20182;-66
2023/11/07 06:49:30;;;;;;;23.90;11.35;;;9.00;99.90;;;;;;4862315;29;20217;-63
2023/11/07 06:51:58;;;;;;;20.05;11.20;;;9.00;99.90;;;;;;4861072;29;20703;-66
2023/11/07 06:54:24;;;;;;;22.75;11.98;;;9.00;99.90;;;;;;4875926;29;20186;-64
2023/11/07 06:56:50;;;;;;;25.65;11.57;;;9.10;99.90;;;;;;4862046;29;20269;-65
2023/11/07 06:59:19;;;;;;;28.55;12.38;;;9.10;99.90;;;;;;4860593;29;20298;-65
2023/11/07 07:01:45;;;;;;;20.02;10.55;;;9.10;99.90;;;;;;4860313;29;20193;-67
2023/11/07 07:04:11;;;;;;;23.80;11.15;;;9.10;99.90;;;;;;4860577;29;20217;-68
2023/11/07 07:06:40;;;;;;;25.77;14.95;;;9.10;99.90;;;;;;4861685;29;20219;-67
2023/11/07 07:09:08;;;;;;;19.30;10.27;;;9.10;99.90;;;;;;4860673;29;20214;-62
2023/11/07 07:11:34;;;;;;;23.52;14.32;;;9.10;99.90;;;;;;4860657;29;20201;-63
2023/11/07 07:14:00;;;;;;;21.27;10.80;;;9.20;99.90;;;;;;4861113;29;20273;-64
2023/11/07 07:16:30;;;;;;;22.52;10.57;;;9.20;99.90;;;;;;4861063;29;20273;-68
2023/11/07 07:18:56;;;;;;;22.67;10.85;;;9.20;99.90;;;;;;4861449;29;20226;-65
2023/11/07 07:21:22;;;;;;;18.75;10.55;;;9.30;99.90;;;;;;4861159;29;20624;-65
2023/11/07 07:23:48;;;;;;;20.85;11.50;;;9.30;99.90;;;;;;4875692;29;20364;-67
2023/11/07 07:26:16;;;;;;;19.90;11.20;;;9.30;99.90;;;;;;4860355;29;20356;-64
2023/11/07 07:28:42;;;;;;;20.05;10.52;;;9.30;99.90;;;;;;4861569;29;20557;-68
2023/11/07 07:31:10;;;;;;;20.25;10.85;;;9.40;99.90;;;;;;4861401;29;20209;-66
2023/11/07 07:33:37;;;;;;;17.48;10.30;;;9.40;99.90;;;;;;4859760;29;20301;-66
2023/11/07 07:36:04;;;;;;;19.52;10.45;;;9.40;99.90;;;;;;4861126;29;20193;-67
2023/11/07 07:38:31;;;;;;;17.92;9.82;;;9.50;99.90;;;;;;4861047;29;20190;-65
2023/11/07 07:41:02;;;;;;;17.88;9.70;;;9.50;99.90;;;;;;4844315;29;20573;-67
2023/11/07 07:43:28;;;;;;;23.50;9.60;;;9.50;99.90;;;;;;4860009;29;20194;-66
2023/11/07 07:45:55;;;;;;;17.75;9.10;;;9.60;99.90;;;;;;4859395;29;20596;-68
2023/11/07 07:48:25;;;;;;;14.27;8.68;;;9.60;99.90;;;;;;4859393;29;20503;-67
2023/11/07 07:50:51;;;;;;;16.95;8.60;;;9.70;99.90;;;;;;4860038;29;20225;-59
2023/11/07 07:53:20;;;;;;;15.13;8.20;;;9.70;99.90;;;;;;4860937;29;20186;-62
2023/11/07 07:55:50;;;;;;;14.35;7.90;;;9.80;99.90;;;;;;4859625;29;20189;-62
2023/11/07 07:58:19;;;;;;;18.27;8.52;;;9.90;99.90;;;;;;4861078;29;20639;-62
2023/11/07 08:00:54;;;;;;;14.73;7.50;;;9.90;99.90;;;;;;4859329;29;20189;-60
2023/11/07 08:03:20;;;;;;;13.75;7.65;;;10.00;99.90;;;;;;4859736;29;20269;-62
2023/11/07 08:05:46;;;;;;;11.15;6.40;;;10.10;99.90;;;;;;4861180;29;20309;-63
2023/11/07 08:08:14;;;;;;;10.13;6.50;;;10.20;99.90;;;;;;4860298;29;20225;-62
2023/11/07 08:10:41;;;;;;;14.38;6.32;;;10.20;99.90;;;;;;4874342;29;20217;-61
2023/11/07 08:13:07;;;;;;;12.93;5.97;;;10.30;99.90;;;;;;4844205;29;20186;-61
2023/11/07 08:15:35;;;;;;;13.30;6.38;;;10.40;99.90;;;;;;4860653;29;20189;-61
2023/11/07 08:18:07;;;;;;;13.20;5.68;;;10.50;99.90;;;;;;4860576;29;20189;-62
2023/11/07 08:20:34;;;;;;;10.90;5.63;;;10.60;99.90;;;;;;4860604;29;20174;-60
2023/11/07 08:23:01;;;;;;;10.63;5.35;;;10.70;99.90;;;;;;4860455;29;20378;-61
2023/11/07 08:25:30;;;;;;;9.35;4.95;;;10.70;99.90;;;;;;4860009;29;20221;-60
2023/11/07 08:27:57;;;;;;;13.82;5.40;;;10.80;99.90;;;;;;4859707;29;20189;-60
2023/11/07 08:30:24;;;;;;;12.73;5.15;;;10.90;99.90;;;;;;4860071;29;20200;-61
2023/11/07 08:32:51;;;;;;;11.68;4.32;;;10.90;99.90;;;;;;4860137;29;20256;-61
2023/11/07 08:35:18;;;;;;;7.70;4.55;;;11.00;99.90;;;;;;4859133;29;20186;-60
2023/11/07 08:37:49;;;;;;;11.65;4.60;;;11.00;99.90;;;;;;4860444;29;20265;-61
2023/11/07 08:40:21;;;;;;;11.73;4.60;;;11.00;99.90;;;;;;4860405;29;20174;-62
2023/11/07 08:42:49;;;;;;;11.27;4.93;;;11.00;99.90;;;;;;4860257;29;20169;-60
2023/11/07 08:45:18;;;;;;;7.65;4.82;;;11.00;99.90;;;;;;4859230;29;20295;-63
2023/11/07 08:47:52;;;;;;;12.88;4.90;;;11.00;99.90;;;;;;4860432;29;20217;-60
2023/11/07 08:50:20;;;;;;;8.32;4.35;;;11.00;99.90;;;;;;4860121;29;20213;-61
2023/11/07 08:52:49;;;;;;;10.50;4.45;;;11.00;99.90;;;;;;4860127;29;20225;-61
2023/11/07 08:55:16;;;;;;;10.73;4.32;;;11.00;99.90;;;;;;4858501;29;20188;-61
2023/11/07 08:57:51;;;;;;;10.35;4.40;;;11.00;99.90;;;;;;4859204;29;20185;-60
2023/11/07 09:00:21;;;;;;;8.45;5.13;;;11.00;99.90;;;;;;4859822;29;20634;-61
2023/11/07 09:02:48;;;;;;;7.63;4.07;;;11.00;99.90;;;;;;4858579;29;20186;-61
2023/11/07 09:05:14;;;;;;;8.93;4.15;;;11.00;99.90;;;;;;4858550;29;20295;-61
2023/11/07 09:07:40;;;;;;;10.55;4.55;;;11.00;99.90;;;;;;4859965;29;20241;-61
2023/11/07 09:10:07;;;;;;;13.70;4.53;;;11.00;99.90;;;;;;4859638;29;20182;-60
2023/11/07 09:12:33;;;;;;;9.40;4.35;;;11.00;99.90;;;;;;4859943;29;20193;-60
2023/11/07 09:14:59;;;;;;;10.35;4.00;;;10.90;99.90;;;;;;4858766;29;20595;-61
2023/11/07 09:17:27;;;;;;;10.30;4.20;;;11.00;99.90;;;;;;4860021;29;20285;-60
2023/11/07 09:19:53;;;;;;;7.88;3.90;;;11.00;99.90;;;;;;4859525;29;20264;-61
2023/11/07 09:22:18;;;;;;;10.43;4.15;;;11.00;99.90;;;;;;4859776;29;20273;-60
2023/11/07 09:24:44;;;;;;;6.32;3.90;;;11.00;99.90;;;;;;4859684;29;20676;-60
2023/11/07 09:27:11;;;;;;;12.63;3.80;;;11.00;99.90;;;;;;4859843;29;20209;-60
2023/11/07 09:29:37;;;;;;;8.60;4.25;;;11.00;99.90;;;;;;4859693;29;20190;-60
2023/11/07 09:32:05;;;;;;;7.80;4.30;;;11.00;99.90;;;;;;4859805;29;20194;-60
2023/11/07 09:34:31;;;;;;;10.73;4.30;;;11.00;99.90;;;;;;4859821;29;20188;-60
2023/11/07 09:36:58;;;;;;;9.20;4.18;;;11.00;99.90;;;;;;4860151;29;20683;-60
2023/11/07 09:39:26;;;;;;;9.45;4.35;;;11.00;99.90;;;;;;4862679;29;20182;-59
2023/11/07 09:41:52;;;;;;;11.38;4.75;;;11.00;99.90;;;;;;4862138;29;20280;-60
2023/11/07 09:44:18;;;;;;;11.10;4.47;;;11.00;99.90;;;;;;4861680;29;20270;-60
2023/11/07 09:46:47;;;;;;;9.05;5.07;;;11.00;99.90;;;;;;4863095;29;20221;-60
2023/11/07 09:49:13;;;;;;;10.98;4.82;;;11.00;99.90;;;;;;4863221;29;20186;-61
2023/11/07 09:51:42;;;;;;;9.82;4.90;;;11.00;99.90;;;;;;4863254;29;20521;-61
2023/11/07 09:54:10;;;;;;;14.25;5.82;;;11.00;99.90;;;;;;4861929;29;20190;-60
2023/11/07 09:56:39;;;;;;;8.35;4.63;;;11.00;99.90;;;;;;4862745;29;20647;-60
2023/11/07 09:59:33;;;;;;;10.07;5.45;;;11.10;99.90;;;;;;4862027;29;20194;-60
2023/11/07 10:01:59;;;;;;;10.52;5.43;;;11.10;99.90;;;;;;4863191;29;20179;-61
2023/11/07 10:04:26;;;;;;;10.60;5.05;;;11.20;99.90;;;;;;4861675;29;20274;-61
2023/11/07 10:06:54;;;;;;;18.70;9.77;;;11.20;99.90;;;;;;4862867;29;20281;-61
2023/11/07 10:09:21;;;;;;;9.02;5.70;;;11.30;99.90;;;;;;4862770;29;20197;-60
2023/11/07 10:11:53;;;;;;;9.85;5.03;;;11.40;99.90;;;;;;4862622;29;20643;-59
2023/11/07 10:14:20;;;;;;;10.98;5.88;;;11.50;99.90;;;;;;4863267;29;20185;-60
2023/11/07 10:16:56;;;;;;;10.45;5.38;;;11.50;99.90;;;;;;4863470;29;20204;-60
2023/11/07 10:19:24;;;;;;;13.60;5.55;;;11.50;99.90;;;;;;4863012;29;20174;-60
2023/11/07 10:21:51;;;;;;;16.25;6.70;;;11.50;99.90;;;;;;4862793;29;20605;-61
2023/11/07 10:24:18;;;;;;;12.70;6.18;;;11.50;99.90;;;;;;4876466;29;20269;-60
2023/11/07 10:26:50;;;;;;;13.52;6.80;;;11.50;99.90;;;;;;4846434;29;20269;-61
2023/11/07 10:29:25;;;;;;;9.43;6.55;;;11.60;99.90;;;;;;4876626;29;20193;-63
2023/11/07 10:32:00;;;;;;;10.52;6.30;;;11.60;99.90;;;;;;4862310;29;20201;-61
2023/11/07 10:34:26;;;;;;;10.82;6.07;;;11.60;99.90;;;;;;4862538;29;20831;-63
2023/11/07 10:36:52;;;;;;;12.05;6.50;;;11.60;99.90;;;;;;4862402;29;20186;-60
2023/11/07 10:39:21;;;;;;;11.63;5.75;;;11.60;99.90;;;;;;4862268;29;20269;-60
2023/11/07 10:41:48;;;;;;;12.40;5.88;;;11.70;99.90;;;;;;4860815;29;20234;-62
2023/11/07 10:44:25;;;;;;;13.95;6.65;;;11.70;99.90;;;;;;4861671;29;20224;-64
2023/11/07 10:46:58;;;;;;;10.32;5.82;;;11.70;99.90;;;;;;4862485;29;20220;-60
2023/11/07 10:49:25;;;;;;;16.90;6.30;;;11.70;99.90;;;;;;4861157;29;20508;-59
2023/11/07 10:51:52;;;;;;;11.45;6.85;;;11.70;99.90;;;;;;4861746;29;20288;-61
2023/11/07 10:54:21;;;;;;;9.57;6.60;;;11.70;99.90;;;;;;4860460;29;20303;-66
2023/11/07 10:56:49;;;;;;;10.77;6.57;;;11.70;99.90;;;;;;4861384;29;20661;-64
2023/11/07 10:59:20;;;;;;;14.65;6.47;;;11.70;99.90;;;;;;4861820;29;20179;-64
2023/11/07 11:01:50;;;;;;;8.88;5.90;;;11.70;99.90;;;;;;4875518;29;20186;-65
2023/11/07 11:04:28;;;;;;;9.02;5.80;;;11.70;99.90;;;;;;4861603;29;20217;-64
2023/11/07 11:07:05;;;;;;;10.45;5.57;;;11.70;99.90;;;;;;4875877;29;20282;-64
2023/11/07 11:09:34;;;;;;;10.57;5.68;;;11.80;99.90;;;;;;4861352;29;20170;-64
2023/11/07 11:12:03;;;;;;;9.57;5.45;;;11.90;99.90;;;;;;4861845;29;20599;-64
2023/11/07 11:14:30;;;;;;;7.70;4.90;;;12.00;99.90;;;;;;4859920;29;20186;-65
2023/11/07 11:17:17;;;;;;;11.45;5.07;;;12.00;99.90;;;;;;4859929;29;20205;-64
2023/11/07 11:19:54;;;;;;;10.73;5.30;;;12.00;99.90;;;;;;4861930;29;20233;-64
2023/11/07 11:22:41;;;;;;;7.25;4.57;;;12.00;99.90;;;;;;4860153;29;20224;-65
2023/11/07 11:25:41;;;;;;;10.15;4.97;;;12.10;99.90;;;;;;4861529;29;20205;-64
2023/11/07 11:28:07;;;;;;;7.60;4.60;;;12.20;99.90;;;;;;4861225;29;20177;-65
2023/11/07 11:30:37;;;;;;;8.93;4.70;;;12.20;99.90;;;;;;4861258;29;20186;-65
2023/11/07 11:33:12;;;;;;;10.35;4.68;;;12.30;99.90;;;;;;4861053;29;20174;-64
2023/11/07 11:35:40;;;;;;;10.77;5.00;;;12.30;99.90;;;;;;4860871;29;20173;-66
2023/11/07 11:38:20;;;;;;;9.30;4.88;;;12.40;99.90;;;;;;4860076;29;20301;-65
2023/11/07 11:41:00;;;;;;;9.63;5.53;;;12.50;99.90;;;;;;4861059;29;20182;-66
2023/11/07 11:43:27;;;;;;;8.45;4.93;;;12.50;99.90;;;;;;4859419;29;20171;-65
2023/11/07 11:46:02;;;;;;;8.60;4.97;;;12.60;99.90;;;;;;4860525;29;20253;-66
2023/11/07 11:48:49;;;;;;;9.70;5.13;;;12.60;99.90;;;;;;4860646;29;20254;-65
2023/11/07 11:51:38;;;;;;;10.77;4.53;;;12.70;99.90;;;;;;4860637;29;20591;-64
2023/11/07 11:54:09;;;;;;;7.45;4.70;;;12.70;99.90;;;;;;4875075;29;20631;-64
2023/11/07 11:56:50;;;;;;;10.48;4.90;;;12.80;99.90;;;;;;4860904;29;20182;-66
2023/11/07 11:59:28;;;;;;;10.07;4.70;;;12.90;99.90;;;;;;4859200;29;20189;-65
2023/11/07 12:02:03;;;;;;;10.38;5.15;;;12.90;99.90;;;;;;4860227;29;20189;-64
2023/11/07 12:04:36;;;;;;;6.88;4.18;;;13.00;99.90;;;;;;4859517;29;20202;-64
2023/11/07 12:07:13;;;;;;;8.55;5.05;;;13.00;99.90;;;;;;4859202;29;20230;-65
2023/11/07 12:09:53;;;;;;;9.80;4.88;;;13.00;99.90;;;;;;4859925;29;20635;-64
2023/11/07 12:12:19;;;;;;;7.70;4.47;;;13.00;99.90;;;;;;4843574;29;20170;-65
2023/11/07 12:14:58;;;;;;;10.48;4.78;;;12.90;99.90;;;;;;4859280;29;20182;-64
2023/11/07 12:17:28;;;;;;;13.00;5.57;;;12.80;99.90;;;;;;4860341;29;20198;-64
2023/11/07 12:20:06;;;;;;;10.23;5.35;;;12.80;99.90;;;;;;4860404;29;20208;-64
2023/11/07 12:22:36;;;;;;;9.23;5.07;;;12.70;99.90;;;;;;4859579;29;20630;-65
2023/11/07 12:25:17;;;;;;;12.38;5.00;;;12.60;99.90;;;;;;4860134;29;20296;-65
2023/11/07 12:28:05;;;;;;;11.95;5.88;;;12.50;99.90;;;;;;4860508;29;20188;-65
2023/11/07 12:30:33;;;;;;;11.68;5.40;;;12.40;99.90;;;;;;4860057;29;20180;-65
2023/11/07 12:32:59;;;;;;;10.88;5.80;;;12.30;99.90;;;;;;4859090;29;20514;-65
2023/11/07 12:35:25;;;;;;;9.15;5.45;;;12.30;99.90;;;;;;4858636;29;20201;-66
2023/11/07 12:37:52;;;;;;;8.82;5.13;;;12.20;99.90;;;;;;4859883;29;20188;-65
2023/11/07 12:40:19;;;;;;;10.55;5.47;;;12.20;99.90;;;;;;4860180;29;20190;-66
2023/11/07 12:42:55;;;;;;;9.73;4.82;;;12.20;99.90;;;;;;4859618;29;20185;-65
2023/11/07 12:45:29;;;;;;;9.18;4.82;;;12.20;99.90;;;;;;4858969;29;20213;-64